Time;durP1;ratioP1;P1;durP2;ratioP2;P2;SDS_P1;SDS_P2;PMS_P1;PMS_P2;Temp;Humidity;BMP_temperature;BMP_pressure;BME280_temperature;BME280_humidity;BME280_pressure;Samples;Min_cycle;Max_cycle;Signal;HPM_P1;HPM_P2
2022/04/06 00:01:35;;;;;;;8.43;7.50;;;9.40;99.90;;;;;;5034097;28;20277;-53
2022/04/06 00:04:01;;;;;;;8.57;7.30;;;9.50;99.90;;;;;;5033341;28;20203;-55
2022/04/06 00:06:27;;;;;;;10.03;7.43;;;9.60;99.90;;;;;;5033862;28;20179;-55
2022/04/06 00:08:52;;;;;;;8.10;7.30;;;9.70;99.90;;;;;;5028996;28;20211;-55
2022/04/06 00:11:18;;;;;;;8.30;7.50;;;9.70;99.90;;;;;;5033857;28;20183;-56
2022/04/06 00:13:43;;;;;;;8.40;6.93;;;9.70;99.90;;;;;;5032075;28;20199;-56
2022/04/06 00:16:09;;;;;;;8.17;7.27;;;9.80;99.90;;;;;;5033925;28;20175;-55
2022/04/06 00:18:34;;;;;;;10.83;7.00;;;9.80;99.90;;;;;;5033733;28;20168;-56
2022/04/06 00:21:00;;;;;;;7.97;7.17;;;9.90;99.90;;;;;;5033894;28;20533;-56
2022/04/06 00:23:26;;;;;;;8.60;7.37;;;9.90;99.90;;;;;;5033336;28;20198;-57
2022/04/06 00:25:51;;;;;;;7.77;6.97;;;10.00;99.90;;;;;;5033693;28;20179;-57
2022/04/06 00:28:17;;;;;;;8.33;6.80;;;10.00;99.90;;;;;;5033552;28;20261;-57
2022/04/06 00:30:42;;;;;;;7.87;6.70;;;10.00;99.90;;;;;;5033246;28;20172;-58
2022/04/06 00:33:08;;;;;;;8.03;7.23;;;10.00;99.90;;;;;;5033078;28;20272;-53
2022/04/06 00:35:33;;;;;;;8.07;7.23;;;10.10;99.90;;;;;;5033053;28;20273;-53
2022/04/06 00:38:04;;;;;;;7.97;7.17;;;10.00;99.90;;;;;;5032555;28;20229;-56
2022/04/06 00:40:32;;;;;;;7.43;6.70;;;10.10;99.90;;;;;;5032472;28;20175;-55
2022/04/06 00:42:58;;;;;;;8.20;7.30;;;10.00;99.90;;;;;;5029520;28;20604;-53
2022/04/06 00:45:24;;;;;;;7.07;6.47;;;9.90;99.90;;;;;;5033015;28;20187;-57
2022/04/06 00:47:51;;;;;;;7.40;6.57;;;10.00;99.90;;;;;;5033235;28;20175;-53
2022/04/06 00:50:17;;;;;;;8.43;7.50;;;9.90;99.90;;;;;;5033169;28;20233;-55
2022/04/06 00:52:43;;;;;;;8.20;7.20;;;9.90;99.90;;;;;;5032483;28;20179;-55
2022/04/06 00:55:11;;;;;;;8.47;7.67;;;9.90;99.90;;;;;;5032915;28;20208;-57
2022/04/06 00:57:37;;;;;;;8.00;7.20;;;11.10;99.90;;;;;;5032722;28;20706;-57
2022/04/06 01:00:05;;;;;;;7.93;7.13;;;10.00;99.90;;;;;;5033008;28;20663;-56
2022/04/06 01:02:31;;;;;;;8.07;7.27;;;10.10;99.90;;;;;;5032332;28;20170;-55
2022/04/06 01:04:57;;;;;;;8.27;6.70;;;10.20;99.90;;;;;;5032819;28;20200;-55
2022/04/06 01:07:23;;;;;;;8.67;7.00;;;10.30;99.90;;;;;;5032587;28;20190;-55
2022/04/06 01:09:48;;;;;;;8.53;7.27;;;10.40;99.90;;;;;;5032587;28;20187;-56
2022/04/06 01:12:14;;;;;;;9.77;7.30;;;10.30;99.90;;;;;;5032460;28;20207;-53
2022/04/06 01:14:41;;;;;;;7.90;6.97;;;10.30;99.90;;;;;;5032111;28;20211;-54
2022/04/06 01:17:08;;;;;;;8.20;7.30;;;10.30;99.90;;;;;;5031457;28;20176;-53
2022/04/06 01:19:35;;;;;;;8.07;6.97;;;10.30;99.90;;;;;;5032307;28;20187;-56
2022/04/06 01:22:06;;;;;;;7.40;6.60;;;10.40;99.90;;;;;;5032568;28;20210;-57
2022/04/06 01:24:31;;;;;;;8.77;7.57;;;10.30;99.90;;;;;;5031496;28;20250;-54
2022/04/06 01:27:00;;;;;;;7.83;7.03;;;10.20;99.90;;;;;;5031333;28;20196;-53
2022/04/06 01:29:26;;;;;;;8.20;7.40;;;10.30;99.90;;;;;;5032252;28;20172;-55
2022/04/06 01:31:52;;;;;;;7.83;7.03;;;10.20;99.90;;;;;;5032117;28;20252;-53
2022/04/06 01:34:17;;;;;;;8.57;7.50;;;10.20;99.90;;;;;;5031681;28;20212;-54
2022/04/06 01:36:43;;;;;;;8.47;7.67;;;10.10;99.90;;;;;;5032451;28;20183;-55
2022/04/06 01:39:08;;;;;;;8.10;7.33;;;10.00;99.90;;;;;;5032320;28;20191;-53
2022/04/06 01:41:34;;;;;;;8.80;7.90;;;10.10;99.90;;;;;;5032029;28;20556;-52
2022/04/06 01:44:01;;;;;;;8.10;7.30;;;10.00;99.90;;;;;;5031863;28;20286;-52
2022/04/06 01:46:27;;;;;;;8.27;7.47;;;10.10;99.90;;;;;;5031808;28;20179;-53
2022/04/06 01:54:25;;;;;;;8.37;7.27;;;9.90;99.90;;;;;;5051426;28;20215;-53
2022/04/06 01:56:50;;;;;;;8.07;7.13;;;9.80;99.90;;;;;;5051584;28;20186;-55
2022/04/06 01:59:16;;;;;;;8.67;7.70;;;9.90;99.90;;;;;;5051812;28;20167;-56
2022/04/06 02:01:43;;;;;;;9.57;7.40;;;9.90;99.90;;;;;;5051751;28;20170;-54
2022/04/06 02:04:15;;;;;;;7.73;6.93;;;9.90;99.90;;;;;;5051393;28;20240;-53
2022/04/06 02:06:41;;;;;;;8.20;7.40;;;9.90;99.90;;;;;;5051876;28;20182;-57
2022/04/06 02:09:08;;;;;;;7.77;6.83;;;9.90;99.90;;;;;;5051610;28;20231;-57
2022/04/06 02:11:35;;;;;;;9.03;7.00;;;9.90;99.90;;;;;;5051551;28;20167;-52
2022/04/06 02:14:00;;;;;;;8.17;7.37;;;10.00;99.90;;;;;;5050873;28;20210;-55
2022/04/06 02:16:27;;;;;;;8.43;6.53;;;10.00;99.90;;;;;;5051752;28;20178;-55
2022/04/06 02:18:52;;;;;;;7.93;6.80;;;9.80;99.90;;;;;;5051332;28;20178;-55
2022/04/06 02:21:18;;;;;;;7.67;6.77;;;9.90;99.90;;;;;;5051508;28;20171;-57
2022/04/06 02:23:43;;;;;;;7.30;6.50;;;9.80;99.90;;;;;;5051014;28;20588;-56
2022/04/06 02:26:09;;;;;;;7.47;6.77;;;9.70;99.90;;;;;;5051524;28;20636;-53
2022/04/06 02:28:35;;;;;;;8.20;7.40;;;9.70;99.90;;;;;;5051252;28;20171;-54
2022/04/06 02:31:00;;;;;;;7.80;7.00;;;9.70;99.90;;;;;;5051365;28;20254;-54
2022/04/06 02:33:26;;;;;;;8.00;6.80;;;9.70;99.90;;;;;;5049762;28;20213;-56
2022/04/06 02:35:51;;;;;;;8.17;7.33;;;9.80;99.90;;;;;;5052579;28;20178;-54
2022/04/06 02:38:17;;;;;;;8.53;7.23;;;9.90;99.90;;;;;;5055554;28;20539;-53
2022/04/06 02:40:42;;;;;;;7.67;6.87;;;10.20;99.90;;;;;;5053906;28;20228;-56
2022/04/06 02:43:08;;;;;;;7.87;7.07;;;10.70;99.90;;;;;;5055067;28;20250;-54
2022/04/06 02:45:33;;;;;;;7.93;6.83;;;10.20;99.90;;;;;;5055176;28;20245;-54
2022/04/06 02:47:59;;;;;;;7.93;7.10;;;10.20;99.90;;;;;;5055437;28;20202;-54
2022/04/06 02:50:24;;;;;;;9.03;7.20;;;10.20;99.90;;;;;;5054951;28;20211;-51
2022/04/06 02:52:50;;;;;;;8.00;7.20;;;10.30;99.90;;;;;;5054939;28;20229;-56
2022/04/06 02:55:16;;;;;;;8.17;7.37;;;10.30;99.90;;;;;;5054882;28;20213;-56
2022/04/06 02:57:42;;;;;;;8.73;7.83;;;10.50;99.90;;;;;;5055128;28;20579;-52
2022/04/06 03:00:09;;;;;;;8.30;7.50;;;10.50;99.90;;;;;;5055056;28;20254;-55
2022/04/06 03:02:35;;;;;;;8.43;7.47;;;10.50;99.90;;;;;;5053182;28;20261;-55
2022/04/06 03:05:01;;;;;;;9.37;7.20;;;10.50;99.90;;;;;;5055047;28;20195;-55
2022/04/06 03:07:26;;;;;;;9.23;7.23;;;10.50;99.90;;;;;;5054632;28;20270;-52
2022/04/06 03:09:52;;;;;;;8.23;6.97;;;10.50;99.90;;;;;;5054715;28;20183;-54
2022/04/06 03:12:18;;;;;;;9.30;8.40;;;10.40;99.90;;;;;;5054622;28;20179;-56
2022/04/06 03:14:43;;;;;;;7.87;7.07;;;10.30;99.90;;;;;;5054721;28;20591;-56
2022/04/06 03:17:09;;;;;;;7.97;7.17;;;10.20;99.90;;;;;;5054627;28;20210;-53
2022/04/06 03:19:34;;;;;;;7.93;6.90;;;10.10;99.90;;;;;;5054975;28;20759;-53
2022/04/06 03:22:01;;;;;;;7.77;6.97;;;10.10;99.90;;;;;;5054709;28;20163;-57
2022/04/06 03:24:27;;;;;;;8.10;7.03;;;10.00;99.90;;;;;;5054086;28;20198;-56
2022/04/06 03:26:52;;;;;;;7.87;7.07;;;10.00;99.90;;;;;;5054837;28;20163;-58
2022/04/06 03:29:17;;;;;;;8.10;7.30;;;10.00;99.90;;;;;;5054656;28;20175;-58
2022/04/06 03:31:43;;;;;;;8.20;7.40;;;10.00;99.90;;;;;;5054649;28;20179;-56
2022/04/06 03:34:09;;;;;;;7.63;6.83;;;10.00;99.90;;;;;;5053891;28;20576;-53
2022/04/06 03:36:34;;;;;;;7.93;6.83;;;10.10;99.90;;;;;;5054621;28;20163;-55
2022/04/06 03:39:00;;;;;;;7.47;6.77;;;10.00;99.90;;;;;;5054153;28;20233;-53
2022/04/06 03:41:25;;;;;;;8.47;7.60;;;10.00;99.90;;;;;;5054399;28;20579;-57
2022/04/06 03:43:52;;;;;;;7.37;6.40;;;10.00;99.90;;;;;;5053821;28;20217;-55
2022/04/06 03:46:18;;;;;;;7.23;6.53;;;;;;;;;;5053922;28;20189;-55
2022/04/06 03:48:44;;;;;;;7.43;6.60;;;10.10;99.90;;;;;;5054358;28;20182;-52
2022/04/06 03:51:10;;;;;;;7.30;6.50;;;10.10;99.90;;;;;;5053765;28;20641;-55
2022/04/06 03:53:35;;;;;;;8.40;7.23;;;10.20;99.90;;;;;;5053783;28;20256;-55
2022/04/06 03:56:01;;;;;;;8.37;6.83;;;10.20;99.90;;;;;;5054116;28;20184;-52
2022/04/06 03:58:27;;;;;;;7.73;7.00;;;10.20;99.90;;;;;;5054144;28;20522;-52
2022/04/06 04:00:52;;;;;;;8.10;6.80;;;10.20;99.90;;;;;;5053618;28;20633;-52
2022/04/06 04:03:18;;;;;;;8.40;7.23;;;10.20;99.90;;;;;;5053638;28;20199;-53
2022/04/06 04:05:43;;;;;;;8.10;7.00;;;10.20;99.90;;;;;;5053811;28;20167;-54
2022/04/06 04:08:09;;;;;;;7.23;6.53;;;10.20;99.90;;;;;;5034221;28;20207;-53
2022/04/06 04:10:34;;;;;;;7.53;6.73;;;10.10;99.90;;;;;;5032628;28;20253;-55
2022/04/06 04:13:00;;;;;;;7.67;6.87;;;10.00;99.90;;;;;;5033244;28;20238;-54
2022/04/06 04:15:26;;;;;;;8.43;7.10;;;10.10;99.90;;;;;;5033957;28;20607;-54
2022/04/06 04:17:51;;;;;;;8.00;7.20;;;10.20;99.90;;;;;;5033612;28;20176;-54
2022/04/06 04:20:17;;;;;;;7.40;6.70;;;10.30;99.90;;;;;;5033680;28;20180;-52
2022/04/06 04:22:42;;;;;;;7.20;6.50;;;10.40;99.90;;;;;;5033119;28;20605;-52
2022/04/06 04:25:10;;;;;;;8.73;7.00;;;10.50;99.90;;;;;;5033619;28;20204;-53
2022/04/06 04:27:36;;;;;;;32.60;29.00;;;10.50;99.90;;;;;;5032448;28;20263;-55
2022/04/06 04:30:02;;;;;;;8.07;7.30;;;10.50;99.90;;;;;;5033340;28;20608;-54
2022/04/06 04:32:27;;;;;;;8.00;6.70;;;10.60;99.90;;;;;;5031461;28;20198;-52
2022/04/06 04:34:53;;;;;;;6.57;5.97;;;10.60;99.90;;;;;;5032910;28;20223;-54
2022/04/06 04:37:18;;;;;;;6.67;5.97;;;10.60;99.90;;;;;;5033320;28;20226;-55
2022/04/06 04:39:44;;;;;;;7.53;6.53;;;10.70;99.90;;;;;;5033058;28;20184;-53
2022/04/06 04:42:09;;;;;;;6.23;5.63;;;10.70;99.90;;;;;;5033220;28;20263;-53
2022/04/06 04:44:35;;;;;;;7.20;6.50;;;10.70;99.90;;;;;;5032946;28;20669;-53
2022/04/06 04:47:01;;;;;;;7.00;5.67;;;10.70;99.90;;;;;;5033333;28;20207;-55
2022/04/06 04:49:26;;;;;;;6.57;5.87;;;10.80;99.90;;;;;;5033286;28;20190;-52
2022/04/06 04:51:52;;;;;;;6.83;5.97;;;10.80;99.90;;;;;;5032750;28;20314;-56
2022/04/06 04:54:17;;;;;;;6.20;5.50;;;10.80;99.90;;;;;;5031254;28;20204;-53
2022/04/06 04:56:43;;;;;;;7.00;6.30;;;11.90;99.90;;;;;;5033103;28;20192;-55
2022/04/06 04:59:09;;;;;;;7.30;6.10;;;10.60;99.90;;;;;;5032314;28;20171;-53
2022/04/06 05:01:35;;;;;;;6.90;5.57;;;10.70;99.90;;;;;;5032711;28;20168;-54
2022/04/06 05:04:00;;;;;;;6.23;5.60;;;10.60;99.90;;;;;;5032575;28;20200;-54
2022/04/06 05:06:26;;;;;;;6.03;5.43;;;10.60;99.90;;;;;;5032710;28;20176;-57
2022/04/06 05:08:51;;;;;;;7.07;5.63;;;10.60;99.90;;;;;;5032855;28;20184;-53
2022/04/06 05:11:17;;;;;;;5.50;5.00;;;10.60;99.90;;;;;;5032442;28;20241;-53
2022/04/06 05:13:43;;;;;;;6.17;5.57;;;10.50;99.90;;;;;;5032406;28;20599;-54
2022/04/06 05:16:09;;;;;;;6.50;5.90;;;10.30;99.90;;;;;;5031219;28;20204;-56
2022/04/06 05:18:34;;;;;;;6.10;5.50;;;10.20;99.90;;;;;;5032747;28;20645;-55
2022/04/06 05:21:00;;;;;;;5.40;4.90;;;10.20;99.90;;;;;;5032414;28;20184;-55
2022/04/06 05:23:26;;;;;;;6.67;5.03;;;10.20;99.90;;;;;;5031702;28;20195;-53
2022/04/06 05:25:51;;;;;;;5.50;5.00;;;10.30;99.90;;;;;;5032673;28;20172;-54
2022/04/06 05:28:18;;;;;;;5.43;4.93;;;10.30;99.90;;;;;;5031023;28;20241;-57
2022/04/06 05:30:45;;;;;;;5.40;4.80;;;10.40;99.90;;;;;;5031946;28;20164;-57
2022/04/06 05:33:11;;;;;;;5.57;4.97;;;10.20;99.90;;;;;;5027001;28;20187;-56
2022/04/06 05:35:36;;;;;;;6.03;5.40;;;10.20;99.90;;;;;;5029129;28;20660;-53
2022/04/06 05:38:02;;;;;;;6.70;5.10;;;10.10;99.90;;;;;;5031360;28;20180;-54
2022/04/06 05:40:27;;;;;;;6.23;5.43;;;10.00;99.90;;;;;;5031951;28;20178;-52
2022/04/06 05:42:53;;;;;;;5.80;5.20;;;10.10;99.90;;;;;;5045618;22;20720;-48
2022/04/06 05:45:19;;;;;;;5.50;5.00;;;10.20;99.90;;;;;;5011883;28;20188;-54
2022/04/06 05:47:45;;;;;;;5.87;4.87;;;10.30;99.90;;;;;;5021585;28;20180;-51
2022/04/06 05:50:13;;;;;;;5.00;4.50;;;10.30;99.90;;;;;;5030767;28;20608;-49
2022/04/06 05:52:39;;;;;;;5.47;4.90;;;10.40;99.90;;;;;;5025829;28;20206;-51
2022/04/06 05:55:05;;;;;;;5.40;4.90;;;10.40;99.90;;;;;;5029735;28;20665;-53
2022/04/06 05:57:30;;;;;;;6.43;4.80;;;10.50;99.90;;;;;;5029217;28;20179;-51
2022/04/06 05:59:56;;;;;;;6.00;4.73;;;10.50;99.90;;;;;;5030266;28;20263;-53
2022/04/06 06:02:24;;;;;;;6.47;5.00;;;10.50;99.90;;;;;;5021552;28;20183;-51
2022/04/06 06:04:50;;;;;;;5.07;4.50;;;10.50;99.90;;;;;;5029875;28;20179;-49
2022/04/06 06:07:19;;;;;;;5.40;4.73;;;10.40;99.90;;;;;;5031125;28;20172;-47
2022/04/06 06:09:45;;;;;;;4.80;4.40;;;10.40;99.90;;;;;;5029730;28;20172;-51
2022/04/06 06:12:10;;;;;;;5.10;4.67;;;10.50;99.90;;;;;;5031154;28;20199;-52
2022/04/06 06:14:36;;;;;;;5.43;4.83;;;10.60;99.90;;;;;;5030793;28;20861;-49
2022/04/06 06:17:01;;;;;;;5.13;4.63;;;10.60;99.90;;;;;;5031304;28;20644;-51
2022/04/06 06:19:27;;;;;;;4.90;4.40;;;10.70;99.90;;;;;;5037442;28;20251;-50
2022/04/06 06:21:52;;;;;;;5.03;4.60;;;12.40;99.90;;;;;;5030500;28;20618;-53
2022/04/06 06:24:19;;;;;;;4.70;4.30;;;10.80;99.90;;;;;;5031212;28;20192;-53
2022/04/06 06:26:44;;;;;;;5.53;5.00;;;10.90;99.90;;;;;;5031005;28;20225;-52
2022/04/06 06:29:11;;;;;;;5.90;5.00;;;10.90;99.90;;;;;;5031253;28;20678;-50
2022/04/06 06:31:37;;;;;;;10.10;7.90;;;11.00;99.90;;;;;;5031027;28;20172;-51
2022/04/06 06:34:03;;;;;;;6.57;5.10;;;10.90;99.90;;;;;;5030470;28;20204;-51
2022/04/06 06:36:29;;;;;;;5.40;4.90;;;10.90;99.90;;;;;;5063319;28;20637;-49
2022/04/06 06:38:55;;;;;;;5.70;4.43;;;11.00;99.90;;;;;;5030902;28;20242;-50
2022/04/06 06:41:21;;;;;;;4.47;4.00;;;11.70;99.90;;;;;;5063511;28;20259;-53
2022/04/06 06:43:48;;;;;;;4.90;4.40;;;11.00;99.90;;;;;;5029235;28;20211;-52
2022/04/06 06:46:18;;;;;;;4.67;4.27;;;12.60;99.90;;;;;;5059531;28;20176;-49
2022/04/06 06:48:44;;;;;;;4.40;4.00;;;10.90;99.90;;;;;;5028592;28;20188;-47
2022/04/06 06:51:10;;;;;;;4.23;3.83;;;10.80;99.90;;;;;;5019333;28;20243;-48
2022/04/06 06:53:36;;;;;;;5.63;4.50;;;10.90;99.90;;;;;;5025527;28;20295;-56
2022/04/06 06:56:01;;;;;;;4.30;3.90;;;10.90;99.90;;;;;;5024219;28;20240;-50
2022/04/06 06:58:27;;;;;;;4.47;4.07;;;11.00;99.90;;;;;;5049639;28;20167;-54
2022/04/06 07:00:53;;;;;;;4.83;4.30;;;11.10;99.90;;;;;;5051049;28;20221;-52
2022/04/06 07:03:19;;;;;;;4.50;4.10;;;11.20;99.90;;;;;;5049969;28;20622;-54
2022/04/06 07:05:48;;;;;;;5.20;4.70;;;11.30;99.90;;;;;;5051067;28;20176;-53
2022/04/06 07:08:14;;;;;;;5.10;4.60;;;11.30;99.90;;;;;;5050645;28;20177;-53
2022/04/06 07:10:44;;;;;;;5.57;4.57;;;11.40;99.90;;;;;;5051209;28;20699;-51
2022/04/06 07:13:12;;;;;;;5.00;4.23;;;11.50;99.90;;;;;;5050621;28;20179;-52
2022/04/06 07:15:38;;;;;;;4.40;4.00;;;11.50;99.90;;;;;;5050737;28;20210;-55
2022/04/06 07:18:06;;;;;;;5.03;4.53;;;11.40;99.90;;;;;;5050994;28;20171;-54
2022/04/06 07:20:31;;;;;;;4.47;4.07;;;11.50;99.90;;;;;;5050607;28;20164;-49
2022/04/06 07:22:57;;;;;;;4.67;4.27;;;11.50;99.90;;;;;;5053488;28;20244;-55
2022/04/06 07:25:23;;;;;;;4.83;4.40;;;11.40;99.90;;;;;;5054244;28;20668;-51
2022/04/06 07:27:49;;;;;;;4.77;4.37;;;11.40;99.90;;;;;;5054673;28;20175;-52
2022/04/06 07:30:15;;;;;;;4.77;4.37;;;11.30;99.90;;;;;;5054563;28;20186;-52
2022/04/06 07:32:41;;;;;;;4.60;4.20;;;11.20;99.90;;;;;;5053652;28;20660;-50
2022/04/06 07:35:07;;;;;;;4.77;4.27;;;11.10;99.90;;;;;;5054273;28;20202;-52
2022/04/06 07:37:43;;;;;;;5.23;4.73;;;11.10;99.90;;;;;;5053924;28;20266;-51
2022/04/06 07:40:11;;;;;;;4.70;4.27;;;11.30;99.90;;;;;;5054474;28;20264;-51
2022/04/06 07:42:38;;;;;;;4.73;4.10;;;11.40;99.90;;;;;;5053326;28;20187;-51
2022/04/06 07:45:04;;;;;;;4.60;4.20;;;11.60;99.90;;;;;;5054205;28;20167;-57
2022/04/06 07:47:31;;;;;;;4.57;4.17;;;11.60;99.90;;;;;;5053965;28;20576;-53
2022/04/06 07:49:58;;;;;;;6.60;4.10;;;11.50;99.90;;;;;;5053821;28;20182;-53
2022/04/06 07:52:24;;;;;;;5.10;4.60;;;11.40;99.90;;;;;;5044342;28;20179;-48
2022/04/06 07:54:50;;;;;;;5.83;4.53;;;11.30;99.90;;;;;;5034110;28;20269;-52
2022/04/06 07:57:16;;;;;;;5.23;4.73;;;11.20;99.90;;;;;;5033172;28;20648;-49
2022/04/06 07:59:41;;;;;;;5.60;4.40;;;11.30;99.90;;;;;;5035277;28;20203;-48
2022/04/06 08:02:07;;;;;;;4.97;4.47;;;11.30;99.90;;;;;;5030921;28;20526;-48
2022/04/06 08:04:32;;;;;;;5.03;4.63;;;11.40;99.90;;;;;;5046755;28;20199;-49
2022/04/06 08:06:58;;;;;;;5.47;4.57;;;11.30;99.90;;;;;;5034768;28;20246;-50
2022/04/06 08:09:23;;;;;;;5.00;4.57;;;11.40;99.90;;;;;;5053463;28;20179;-51
2022/04/06 08:11:50;;;;;;;4.60;4.20;;;11.50;99.90;;;;;;5047258;28;20193;-50
2022/04/06 08:14:15;;;;;;;4.77;4.37;;;11.70;99.90;;;;;;5053067;28;20265;-53
2022/04/06 08:16:41;;;;;;;4.57;4.10;;;11.70;99.90;;;;;;5052954;28;20187;-49
2022/04/06 08:19:06;;;;;;;5.07;4.57;;;11.80;99.90;;;;;;5052494;28;20179;-48
2022/04/06 08:21:32;;;;;;;5.13;4.40;;;12.00;99.90;;;;;;5053281;28;20213;-53
2022/04/06 08:23:58;;;;;;;4.40;4.00;;;12.00;99.90;;;;;;5042706;28;20226;-50
2022/04/06 08:26:23;;;;;;;5.00;4.20;;;12.00;99.90;;;;;;5034421;28;20184;-48
2022/04/06 08:28:49;;;;;;;4.83;4.33;;;11.90;99.90;;;;;;5031719;28;20187;-53
2022/04/06 08:31:15;;;;;;;4.77;4.27;;;11.90;99.90;;;;;;5032182;28;20184;-49
2022/04/06 08:33:41;;;;;;;4.97;4.47;;;11.90;99.90;;;;;;5031424;28;20279;-53
2022/04/06 08:36:09;;;;;;;4.57;4.17;;;12.00;99.90;;;;;;5032596;28;20184;-53
2022/04/06 08:38:34;;;;;;;4.30;4.00;;;12.10;99.90;;;;;;5033287;28;20176;-48
2022/04/06 08:41:00;;;;;;;6.87;4.43;;;12.20;99.90;;;;;;5028685;28;20229;-49
2022/04/06 08:43:25;;;;;;;5.30;4.73;;;12.30;99.90;;;;;;5032399;28;20220;-51
2022/04/06 08:45:51;;;;;;;4.67;4.27;;;12.40;99.90;;;;;;5030848;28;20171;-51
2022/04/06 08:48:19;;;;;;;5.53;4.87;;;12.40;99.90;;;;;;5034749;28;20861;-53
2022/04/06 08:50:45;;;;;;;4.60;4.03;;;12.50;99.90;;;;;;5033761;28;20187;-49
2022/04/06 08:53:12;;;;;;;5.03;4.53;;;12.50;99.90;;;;;;5030123;28;20246;-49
2022/04/06 08:55:38;;;;;;;5.27;4.77;;;12.50;99.90;;;;;;5033507;28;20765;-51
2022/04/06 08:58:04;;;;;;;5.73;4.80;;;12.50;99.90;;;;;;5033664;28;20188;-51
2022/04/06 09:00:31;;;;;;;5.33;4.67;;;12.50;99.90;;;;;;5031172;28;20175;-53
2022/04/06 09:02:57;;;;;;;4.60;4.20;;;12.60;99.90;;;;;;5032063;28;20210;-52
2022/04/06 09:05:28;;;;;;;4.80;4.30;;;12.60;99.90;;;;;;5032914;28;20633;-52
2022/04/06 09:07:54;;;;;;;4.67;4.17;;;12.60;99.90;;;;;;5039101;28;20191;-50
2022/04/06 09:10:29;;;;;;;4.60;4.20;;;12.50;99.90;;;;;;5025308;28;20287;-52
2022/04/06 09:13:14;;;;;;;4.53;4.10;;;12.50;99.90;;;;;;5029232;28;20252;-50
2022/04/06 09:15:40;;;;;;;4.50;4.10;;;12.40;99.90;;;;;;5031536;28;20232;-46
2022/04/06 09:18:05;;;;;;;4.47;4.07;;;12.40;99.90;;;;;;5033118;28;20188;-51
2022/04/06 09:20:31;;;;;;;5.60;4.37;;;12.40;99.90;;;;;;5036513;28;20172;-49
2022/04/06 09:23:04;;;;;;;5.40;4.03;;;12.30;99.90;;;;;;5034258;28;20219;-49
2022/04/06 09:25:38;;;;;;;4.30;3.90;;;12.30;99.90;;;;;;5033731;28;20179;-48
2022/04/06 09:28:08;;;;;;;6.13;4.20;;;12.40;99.90;;;;;;5032058;28;20173;-52
2022/04/06 09:30:35;;;;;;;4.97;4.47;;;12.60;99.90;;;;;;5036255;28;20185;-51
2022/04/06 09:33:03;;;;;;;4.77;4.33;;;12.70;99.90;;;;;;5028877;28;20207;-49
2022/04/06 09:35:31;;;;;;;4.50;4.10;;;12.70;99.90;;;;;;5031631;28;20217;-49
2022/04/06 09:38:22;;;;;;;4.80;4.30;;;12.80;99.90;;;;;;5031903;28;20271;-48
2022/04/06 09:40:50;;;;;;;4.40;4.00;;;12.80;99.90;;;;;;5029255;28;20304;-52
2022/04/06 09:43:27;;;;;;;4.87;4.37;;;12.80;99.90;;;;;;5030715;28;20246;-51
2022/04/06 09:48:55;;;;;;;4.50;4.10;;;12.70;99.90;;;;;;5029108;28;20252;-47
2022/04/06 09:51:22;;;;;;;4.33;4.03;;;12.80;99.90;;;;;;5029333;28;20173;-52
2022/04/06 09:53:52;;;;;;;4.13;3.73;;;13.10;99.90;;;;;;5030802;28;20237;-51
2022/04/06 09:56:18;;;;;;;3.77;3.40;;;13.20;99.90;;;;;;5031555;28;20186;-51
2022/04/06 09:58:45;;;;;;;3.63;3.33;;;13.50;99.90;;;;;;5031107;28;20184;-46
2022/04/06 10:01:12;;;;;;;3.73;3.43;;;13.50;99.90;;;;;;5031620;28;20172;-54
2022/04/06 10:03:39;;;;;;;3.90;3.53;;;13.50;99.90;;;;;;5030984;28;20728;-49
2022/04/06 10:06:05;;;;;;;3.87;3.40;;;13.50;99.90;;;;;;5031966;28;20280;-50
2022/04/06 10:08:32;;;;;;;4.40;3.13;;;13.50;99.90;;;;;;5030477;28;20247;-51
2022/04/06 10:10:59;;;;;;;3.80;3.50;;;13.70;99.90;;;;;;5031723;28;20536;-48
2022/04/06 10:13:25;;;;;;;3.60;3.30;;;13.60;99.90;;;;;;5031181;28;20190;-51
2022/04/06 10:15:51;;;;;;;3.90;3.60;;;13.50;99.90;;;;;;5029478;28;20184;-50
2022/04/06 10:18:18;;;;;;;3.80;3.30;;;13.50;99.90;;;;;;5023197;28;20611;-51
2022/04/06 10:21:08;;;;;;;3.13;2.87;;;13.50;99.90;;;;;;5029440;28;20194;-47
2022/04/06 10:23:44;;;;;;;3.73;3.30;;;13.80;99.90;;;;;;5031062;28;20202;-49
2022/04/06 10:26:13;;;;;;;4.37;3.80;;;13.90;99.90;;;;;;5031433;28;20647;-47
2022/04/06 10:28:38;;;;;;;4.10;3.80;;;13.80;99.90;;;;;;5031666;28;20535;-54
2022/04/06 10:31:22;;;;;;;5.27;4.77;;;13.80;99.90;;;;;;5031168;28;20168;-53
2022/04/06 10:33:50;;;;;;;4.07;3.67;;;13.90;99.90;;;;;;5031092;28;20293;-50
2022/04/06 10:36:16;;;;;;;4.23;3.83;;;14.20;99.90;;;;;;5030684;28;20175;-49
2022/04/06 10:39:05;;;;;;;4.50;4.10;;;14.50;99.90;;;;;;5029910;28;20168;-51
2022/04/06 10:41:31;;;;;;;3.83;3.53;;;14.70;99.90;;;;;;5029666;28;20238;-53
2022/04/06 10:43:57;;;;;;;4.37;3.97;;;14.70;99.90;;;;;;5029383;28;20557;-50
2022/04/06 10:46:42;;;;;;;4.00;3.70;;;14.80;99.90;;;;;;5030405;28;20198;-53
2022/04/06 10:49:09;;;;;;;3.47;3.20;;;15.00;99.90;;;;;;5030193;28;20678;-51
2022/04/06 10:51:37;;;;;;;3.97;3.40;;;15.10;99.90;;;;;;5030157;28;20168;-52
2022/04/06 10:54:12;;;;;;;3.73;3.43;;;14.90;99.90;;;;;;5030842;28;20196;-52
2022/04/06 10:56:50;;;;;;;3.50;3.20;;;14.80;99.90;;;;;;5032229;28;20171;-49
2022/04/06 10:59:23;;;;;;;3.40;3.10;;;14.80;99.90;;;;;;5035034;28;20234;-50
2022/04/06 11:02:09;;;;;;;3.63;3.30;;;14.90;99.90;;;;;;5035357;28;20251;-50
2022/04/06 11:04:39;;;;;;;3.40;3.10;;;15.00;99.90;;;;;;5034636;28;20199;-53
2022/04/06 11:07:05;;;;;;;3.50;3.10;;;15.00;99.90;;;;;;5035274;28;20203;-54
2022/04/06 11:12:20;;;;;;;3.10;2.57;;;15.20;99.90;;;;;;5034800;28;20186;-54
2022/04/06 11:15:06;;;;;;;2.83;2.50;;;15.30;99.90;;;;;;5029048;28;20309;-48
2022/04/06 11:17:34;;;;;;;2.60;2.40;;;15.30;99.90;;;;;;5023689;28;20198;-50
2022/04/06 11:20:03;;;;;;;2.50;2.30;;;15.40;99.90;;;;;;5034437;28;20595;-49
2022/04/06 11:22:29;;;;;;;2.63;2.43;;;15.60;99.90;;;;;;5034069;28;20172;-51
2022/04/06 11:24:55;;;;;;;2.50;2.30;;;15.80;99.90;;;;;;5034549;28;20172;-52
2022/04/06 11:27:32;;;;;;;2.60;2.40;;;15.80;99.90;;;;;;5034089;28;20702;-48
2022/04/06 11:30:22;;;;;;;2.50;2.30;;;15.30;99.90;;;;;;5033504;28;20198;-48
2022/04/06 11:32:59;;;;;;;2.50;2.30;;;15.10;99.90;;;;;;5032730;28;20193;-51
2022/04/06 11:35:30;;;;;;;2.40;2.20;;;15.30;99.90;;;;;;5034754;28;20218;-52
2022/04/06 11:37:56;;;;;;;2.13;2.03;;;15.30;99.90;;;;;;5033375;28;20172;-49
2022/04/06 11:40:24;;;;;;;2.30;2.10;;;15.40;99.90;;;;;;5032620;28;20732;-48
2022/04/06 11:42:52;;;;;;;2.60;2.40;;;15.40;99.90;;;;;;5033504;28;20204;-49
2022/04/06 11:45:29;;;;;;;2.17;1.97;;;15.60;99.90;;;;;;5035424;28;20540;-54
2022/04/06 11:47:57;;;;;;;2.23;2.13;;;16.10;99.90;;;;;;5034099;28;20682;-48
2022/04/06 11:50:31;;;;;;;1.93;1.83;;;16.70;99.90;;;;;;5034228;28;20176;-48
2022/04/06 11:53:20;;;;;;;2.50;2.30;;;17.80;99.90;;;;;;5033642;28;20188;-49
2022/04/06 11:55:48;;;;;;;2.30;2.10;;;18.70;99.90;;;;;;5034170;28;20261;-53
2022/04/06 11:58:39;;;;;;;2.47;2.20;;;19.10;99.90;;;;;;5033883;28;20174;-51
2022/04/06 12:01:09;;;;;;;2.47;2.22;;;19.50;99.90;;;;;;5033734;28;20227;-50
2022/04/06 12:03:37;;;;;;;2.33;2.13;;;19.70;99.90;;;;;;5033023;28;20204;-52
2022/04/06 12:06:06;;;;;;;2.97;2.42;;;19.60;99.90;;;;;;5033889;28;20654;-51
2022/04/06 12:08:33;;;;;;;2.57;2.27;;;19.20;99.90;;;;;;5033511;28;20215;-52
2022/04/06 12:10:59;;;;;;;2.30;2.20;;;18.40;99.90;;;;;;5033552;28;20716;-52
2022/04/06 12:13:28;;;;;;;2.53;2.33;;;17.50;99.90;;;;;;5033449;28;20199;-50
2022/04/06 12:15:55;;;;;;;2.70;2.50;;;16.90;99.90;;;;;;5033455;28;20176;-52
2022/04/06 12:18:22;;;;;;;2.30;2.20;;;16.70;99.90;;;;;;5033774;28;20176;-49
2022/04/06 12:20:50;;;;;;;2.30;2.20;;;16.90;99.90;;;;;;5033495;28;20175;-52
2022/04/06 12:23:17;;;;;;;2.70;2.50;;;16.80;99.90;;;;;;5033364;28;20196;-52
2022/04/06 12:25:43;;;;;;;3.17;2.90;;;16.60;99.90;;;;;;5033406;28;20665;-48
2022/04/06 12:28:11;;;;;;;2.60;2.40;;;16.90;99.90;;;;;;5033578;28;20203;-54
2022/04/06 12:30:50;;;;;;;2.23;2.03;;;17.50;99.90;;;;;;5033573;28;20230;-48
2022/04/06 12:33:53;;;;;;;2.40;2.20;;;18.00;99.90;;;;;;5033162;28;20192;-49
2022/04/06 12:36:27;;;;;;;3.00;2.70;;;17.50;99.90;;;;;;5033314;28;20664;-50
2022/04/06 12:38:57;;;;;;;2.50;2.30;;;17.00;99.90;;;;;;5033420;28;20645;-52
2022/04/06 12:41:25;;;;;;;2.60;2.40;;;16.70;99.90;;;;;;5033218;28;20584;-51
2022/04/06 12:43:51;;;;;;;2.60;2.40;;;16.60;99.90;;;;;;5031476;28;20238;-51
2022/04/06 12:46:48;;;;;;;2.63;2.40;;;16.60;99.90;;;;;;5036364;28;20653;-52
2022/04/06 12:49:23;;;;;;;2.73;2.50;;;16.60;99.90;;;;;;5031870;28;20167;-49
2022/04/06 12:52:02;;;;;;;2.40;2.30;;;16.30;99.90;;;;;;5030333;28;20180;-53
2022/04/06 12:54:28;;;;;;;2.60;2.40;;;16.10;99.90;;;;;;5029646;28;20205;-50
2022/04/06 12:57:03;;;;;;;2.60;2.40;;;16.00;99.90;;;;;;5033792;28;20164;-53
2022/04/06 12:59:45;;;;;;;2.20;2.10;;;16.20;99.90;;;;;;5030240;28;20176;-50
2022/04/06 13:02:18;;;;;;;3.33;2.30;;;16.50;99.90;;;;;;5028157;28;20715;-53